Terminal Aerodrome Forecast
Issued by NWS Quad Cities IA IL

Home | Current Version | Previous Version | Text Only | Print | Product List | Glossary On
Versions: 1 2 3 4 5 6 7 8 9 10 11 12 13 14 15 16 17 18 19 20 21 22 23 24 25 26 27 28 29 30 31
071
FTUS43 KDVN 202340
TAFDBQ
TAF
KDBQ 202340Z 2100/2124 15006KT P6SM SCT250
     FM210300 14003KT 4SM BR OVC015
     FM210700 12003KT 2SM -DZ BR OVC006
     FM211300 13004KT 1/2SM -DZ FG OVC004
     FM212000 12006KT 1 1/2SM -RA BR OVC006=

USA.gov is the U.S. government's official web portal to all federal, state and local government web resources and services.